Time;durP1;ratioP1;P1;durP2;ratioP2;P2;SDS_P1;SDS_P2;PMS_P1;PMS_P2;Temp;Humidity;BMP_temperature;BMP_pressure;BME280_temperature;BME280_humidity;BME280_pressure;Samples;Min_cycle;Max_cycle;Signal;HPM_P1;HPM_P2
2022/05/14 00:00:24;;;;;;;12.63;6.97;;;11.00;99.90;;;;;;5093949;28;20024;-67
2022/05/14 00:02:50;;;;;;;13.70;7.82;;;11.00;99.90;;;;;;5093899;28;20474;-67
2022/05/14 00:05:19;;;;;;;11.95;7.50;;;11.00;99.90;;;;;;5092732;28;20024;-67
2022/05/14 00:07:46;;;;;;;11.55;7.95;;;10.90;99.90;;;;;;5093706;28;20038;-67
2022/05/14 00:10:12;;;;;;;13.43;8.30;;;10.90;99.90;;;;;;5092874;28;20024;-67
2022/05/14 00:13:09;;;;;;;12.57;8.32;;;10.80;99.90;;;;;;5093820;28;20028;-67
2022/05/14 00:15:23;;;;;;;13.80;8.85;;;10.80;99.90;;;;;;5093622;28;20036;-67
2022/05/14 00:17:49;;;;;;;17.25;9.68;;;10.70;99.90;;;;;;5092489;28;20036;-67
2022/05/14 00:20:15;;;;;;;17.05;9.82;;;10.70;99.90;;;;;;5093923;28;20077;-67
2022/05/14 00:22:41;;;;;;;12.40;8.90;;;10.60;99.90;;;;;;5092279;28;20023;-67
2022/05/14 00:25:07;;;;;;;13.52;8.77;;;10.60;99.90;;;;;;5092280;28;20566;-67
2022/05/14 00:27:33;;;;;;;11.93;8.38;;;10.60;99.90;;;;;;5092373;28;20102;-67
2022/05/14 00:29:59;;;;;;;14.00;8.77;;;10.50;99.90;;;;;;5093569;28;20024;-67
2022/05/14 00:32:24;;;;;;;16.73;9.93;;;10.50;99.90;;;;;;5093546;28;20027;-67
2022/05/14 00:34:50;;;;;;;16.00;9.32;;;10.40;99.90;;;;;;5092236;28;20124;-67
2022/05/14 00:37:16;;;;;;;17.08;9.25;;;10.40;99.90;;;;;;5092202;28;20490;-67
2022/05/14 00:39:42;;;;;;;13.27;9.90;;;10.40;99.90;;;;;;5093641;28;20028;-67
2022/05/14 00:42:08;;;;;;;18.50;10.02;;;10.40;99.90;;;;;;5093266;28;20074;-67
2022/05/14 00:44:33;;;;;;;13.38;8.80;;;10.40;99.90;;;;;;5093567;28;20020;-67
2022/05/14 00:47:02;;;;;;;13.10;8.73;;;10.40;99.90;;;;;;5093083;28;20044;-67
2022/05/14 00:49:31;;;;;;;14.88;9.02;;;10.30;99.90;;;;;;5093377;28;20020;-67
2022/05/14 00:51:58;;;;;;;12.40;8.80;;;10.40;99.90;;;;;;5092045;28;20028;-67
2022/05/14 00:54:32;;;;;;;12.82;7.88;;;10.30;99.90;;;;;;5093342;28;20048;-67
2022/05/14 00:57:02;;;;;;;14.20;8.60;;;10.30;99.90;;;;;;5092291;28;20035;-67
2022/05/14 00:59:29;;;;;;;14.35;8.80;;;10.30;99.90;;;;;;5092056;28;20414;-67
2022/05/14 01:01:55;;;;;;;13.55;8.02;;;10.20;99.90;;;;;;5093179;28;20024;-67
2022/05/14 01:04:21;;;;;;;12.88;8.75;;;10.30;99.90;;;;;;5091928;28;20024;-67
2022/05/14 01:06:52;;;;;;;14.18;9.07;;;10.20;99.90;;;;;;5093052;28;20512;-67
2022/05/14 01:09:18;;;;;;;14.43;8.63;;;10.20;99.90;;;;;;5093063;28;20020;-67
2022/05/14 01:11:44;;;;;;;14.15;8.85;;;10.20;99.90;;;;;;5091995;28;20020;-67
2022/05/14 01:14:09;;;;;;;18.90;8.95;;;10.20;99.90;;;;;;5091902;28;20085;-67
2022/05/14 01:16:36;;;;;;;12.27;8.52;;;10.20;99.90;;;;;;5093040;28;20541;-67
2022/05/14 01:19:01;;;;;;;15.48;8.65;;;10.10;99.90;;;;;;5091828;28;20103;-67
2022/05/14 01:21:43;;;;;;;13.40;8.55;;;10.10;99.90;;;;;;5091807;28;20028;-67
2022/05/14 01:27:10;;;;;;;14.02;8.15;;;10.00;99.90;;;;;;5092700;28;20109;-67
2022/05/14 01:29:36;;;;;;;13.70;8.55;;;9.90;99.90;;;;;;5093018;28;20025;-67
2022/05/14 01:32:02;;;;;;;12.25;8.95;;;9.90;99.90;;;;;;5093179;28;20417;-67
2022/05/14 01:34:31;;;;;;;14.48;9.40;;;9.90;99.90;;;;;;5093038;28;20031;-67
2022/05/14 01:36:57;;;;;;;19.45;10.00;;;9.90;99.90;;;;;;5091719;28;20077;-67
2022/05/14 01:39:23;;;;;;;14.85;9.90;;;9.90;99.90;;;;;;5091643;28;20036;-67
2022/05/14 01:41:49;;;;;;;21.33;10.13;;;9.80;99.90;;;;;;5092861;28;20070;-67
2022/05/14 01:44:14;;;;;;;23.08;10.80;;;9.80;99.90;;;;;;5092797;28;20058;-67
2022/05/14 01:46:40;;;;;;;14.63;9.68;;;9.80;99.90;;;;;;5092548;28;20076;-67
2022/05/14 01:49:06;;;;;;;15.13;10.13;;;9.70;99.90;;;;;;5092862;28;20020;-67
2022/05/14 01:51:33;;;;;;;19.10;9.85;;;9.70;99.90;;;;;;5092712;28;20056;-67
2022/05/14 01:53:59;;;;;;;18.80;9.68;;;9.70;99.90;;;;;;5093502;28;20020;-67
2022/05/14 01:56:25;;;;;;;13.63;9.27;;;9.60;99.90;;;;;;5096340;28;20501;-67
2022/05/14 01:58:51;;;;;;;17.17;9.52;;;9.60;99.90;;;;;;5096311;28;20020;-67
2022/05/14 02:01:22;;;;;;;19.23;10.63;;;9.60;99.90;;;;;;5096317;28;20545;-68
2022/05/14 02:03:53;;;;;;;16.17;9.70;;;9.60;99.90;;;;;;5096255;28;20020;-67
2022/05/14 02:06:19;;;;;;;17.98;10.15;;;9.60;99.90;;;;;;5096075;28;20020;-67
2022/05/14 02:08:45;;;;;;;15.43;9.98;;;9.50;99.90;;;;;;5094876;28;20035;-67
2022/05/14 02:11:11;;;;;;;15.70;9.93;;;9.50;99.90;;;;;;5096355;28;20406;-67
2022/05/14 02:13:37;;;;;;;18.52;10.30;;;9.50;99.90;;;;;;5096071;28;20027;-67
2022/05/14 02:16:04;;;;;;;16.13;10.65;;;9.40;99.90;;;;;;5094782;28;20024;-67
2022/05/14 02:18:29;;;;;;;20.42;12.48;;;9.40;99.90;;;;;;5094798;28;20127;-67
2022/05/14 02:20:55;;;;;;;16.63;9.90;;;9.40;99.90;;;;;;5096179;28;20056;-67
2022/05/14 02:23:21;;;;;;;16.33;10.27;;;9.30;99.90;;;;;;5095797;28;20115;-67
2022/05/14 02:25:47;;;;;;;14.77;10.40;;;9.30;99.90;;;;;;5095762;28;20441;-67
2022/05/14 02:28:13;;;;;;;17.55;10.18;;;9.30;99.90;;;;;;5095684;28;20031;-67
2022/05/14 02:30:39;;;;;;;15.18;10.20;;;9.20;99.90;;;;;;5094534;28;20023;-67
2022/05/14 02:33:05;;;;;;;16.63;10.13;;;9.30;99.90;;;;;;5095622;28;20532;-67
2022/05/14 02:35:31;;;;;;;20.58;11.25;;;9.20;99.90;;;;;;5094729;28;20020;-67
2022/05/14 02:37:57;;;;;;;21.55;11.65;;;9.20;99.90;;;;;;5094396;28;20028;-67
2022/05/14 02:40:22;;;;;;;12.73;10.35;;;9.20;99.90;;;;;;5095509;28;20497;-67
2022/05/14 02:42:48;;;;;;;17.23;10.38;;;9.10;99.90;;;;;;5094222;28;20089;-67
2022/05/14 02:45:14;;;;;;;19.17;11.30;;;9.00;99.90;;;;;;5094214;28;20036;-67
2022/05/14 02:47:40;;;;;;;21.52;11.95;;;9.00;99.90;;;;;;5093953;28;20410;-67
2022/05/14 02:50:08;;;;;;;13.77;10.60;;;9.00;99.90;;;;;;5095313;28;20024;-67
2022/05/14 02:52:34;;;;;;;19.67;10.65;;;9.00;99.90;;;;;;5093950;28;20027;-67
2022/05/14 02:55:00;;;;;;;22.77;11.23;;;8.90;99.90;;;;;;5095228;28;20025;-67
2022/05/14 02:57:26;;;;;;;25.58;13.05;;;8.90;99.90;;;;;;5094029;28;20036;-67
2022/05/14 02:59:52;;;;;;;26.95;13.63;;;8.90;99.90;;;;;;5095125;28;20563;-67
2022/05/14 03:02:17;;;;;;;18.33;11.68;;;8.90;99.90;;;;;;5095119;28;20031;-67
2022/05/14 03:04:44;;;;;;;19.95;12.40;;;8.90;99.90;;;;;;5077031;28;20024;-67
2022/05/14 03:07:12;;;;;;;19.73;11.93;;;8.90;99.90;;;;;;5094912;28;20114;-67
2022/05/14 03:09:38;;;;;;;17.00;11.75;;;8.80;99.90;;;;;;5095018;28;20381;-67
2022/05/14 03:12:06;;;;;;;19.65;11.30;;;8.80;99.90;;;;;;5093649;28;20020;-67
2022/05/14 03:14:33;;;;;;;15.57;10.85;;;8.90;99.90;;;;;;5094922;28;20482;-67
2022/05/14 03:16:59;;;;;;;20.30;11.27;;;8.90;99.90;;;;;;5094889;28;20031;-67
2022/05/14 03:19:24;;;;;;;16.30;11.05;;;8.90;99.90;;;;;;5093804;28;20024;-67
2022/05/14 03:21:50;;;;;;;22.33;12.55;;;8.90;99.90;;;;;;5094966;28;20157;-67
2022/05/14 03:24:16;;;;;;;19.17;11.43;;;8.90;99.90;;;;;;5094675;28;20255;-67
2022/05/14 03:26:42;;;;;;;21.35;11.13;;;8.80;99.90;;;;;;5094413;28;20028;-67
2022/05/14 03:29:09;;;;;;;20.38;11.75;;;8.90;99.90;;;;;;5093318;28;20074;-67
2022/05/14 03:31:36;;;;;;;17.95;11.73;;;8.90;99.90;;;;;;5094590;28;20020;-67
2022/05/14 03:34:03;;;;;;;23.38;12.45;;;8.90;99.90;;;;;;5094548;28;20024;-67
2022/05/14 03:36:28;;;;;;;19.35;12.93;;;8.90;99.90;;;;;;5076388;28;20020;-67
2022/05/14 03:38:54;;;;;;;16.23;12.30;;;8.90;99.90;;;;;;5094371;28;20111;-67
2022/05/14 03:41:20;;;;;;;16.60;12.02;;;8.90;99.90;;;;;;5094381;28;20024;-67
2022/05/14 03:43:46;;;;;;;18.80;10.75;;;8.90;99.90;;;;;;5094234;28;20024;-67
2022/05/14 03:46:12;;;;;;;18.20;12.30;;;8.90;99.90;;;;;;5093974;28;20076;-67
2022/05/14 03:48:38;;;;;;;20.67;12.30;;;8.90;99.90;;;;;;5094275;28;20062;-67
2022/05/14 03:51:05;;;;;;;25.02;11.80;;;8.90;99.90;;;;;;5093001;28;20020;-67
2022/05/14 03:53:31;;;;;;;24.58;14.13;;;9.00;99.90;;;;;;5094351;28;20081;-67
2022/05/14 03:55:57;;;;;;;18.67;11.95;;;9.00;99.90;;;;;;5094107;28;20059;-67
2022/05/14 03:58:23;;;;;;;22.42;13.70;;;9.10;99.90;;;;;;5094094;28;20024;-67
2022/05/14 04:00:49;;;;;;;24.23;13.60;;;9.10;99.90;;;;;;5092846;28;20031;-67
2022/05/14 04:03:14;;;;;;;25.90;14.07;;;9.20;99.90;;;;;;5092758;28;20471;-67
2022/05/14 04:05:40;;;;;;;26.27;14.43;;;9.20;99.90;;;;;;5092782;28;20028;-67
2022/05/14 04:08:06;;;;;;;27.10;14.18;;;9.30;99.90;;;;;;5093756;28;20039;-67
2022/05/14 04:10:32;;;;;;;21.45;13.32;;;9.40;99.90;;;;;;5093912;28;20394;-67
2022/05/14 04:12:58;;;;;;;26.17;14.60;;;9.40;99.90;;;;;;5092671;28;20024;-67
2022/05/14 04:15:24;;;;;;;28.75;14.90;;;9.50;99.90;;;;;;5093739;28;20490;-67
2022/05/14 04:17:51;;;;;;;32.72;15.85;;;9.50;99.90;;;;;;5093287;28;20024;-67
2022/05/14 04:20:16;;;;;;;23.25;14.35;;;9.70;99.90;;;;;;5093701;28;20024;-68
2022/05/14 04:22:43;;;;;;;29.27;14.77;;;9.80;99.90;;;;;;5093690;28;20036;-67
2022/05/14 04:25:10;;;;;;;32.80;15.10;;;9.90;99.90;;;;;;5093594;28;20016;-67
2022/05/14 04:27:36;;;;;;;24.23;13.68;;;10.00;99.90;;;;;;5093734;28;20112;-67
2022/05/14 04:30:02;;;;;;;24.15;14.80;;;9.90;99.90;;;;;;5093594;28;20500;-67
2022/05/14 04:32:27;;;;;;;19.40;13.10;;;10.00;99.90;;;;;;5093557;28;20024;-67
2022/05/14 04:34:53;;;;;;;23.83;14.20;;;10.10;99.90;;;;;;5093457;28;20108;-67
2022/05/14 04:37:19;;;;;;;24.20;14.23;;;10.30;99.90;;;;;;5093744;28;20139;-67
2022/05/14 04:39:44;;;;;;;23.90;13.85;;;10.40;99.90;;;;;;5093436;28;20054;-67
2022/05/14 04:42:10;;;;;;;25.50;14.40;;;10.40;99.90;;;;;;5093408;28;20056;-67
2022/05/14 04:44:37;;;;;;;24.90;13.73;;;10.60;99.90;;;;;;5093403;28;20390;-68
2022/05/14 04:47:04;;;;;;;23.20;12.38;;;11.10;99.90;;;;;;5093128;28;20426;-67
2022/05/14 04:49:30;;;;;;;24.30;11.73;;;11.40;99.90;;;;;;5093403;28;20055;-68
2022/05/14 04:51:56;;;;;;;20.90;10.27;;;12.10;99.90;;;;;;5093356;28;20040;-68
2022/05/14 04:54:22;;;;;;;14.48;9.80;;;12.60;99.90;;;;;;5093255;28;20017;-68
2022/05/14 04:56:48;;;;;;;15.30;9.27;;;12.90;99.90;;;;;;5093279;28;20020;-68
2022/05/14 04:59:14;;;;;;;22.42;11.40;;;12.90;99.90;;;;;;5093500;28;20077;-68
2022/05/14 05:03:16;;;;;;;22.00;11.10;;;13.00;99.90;;;;;;5093455;28;20036;-68
2022/05/14 05:04:25;;;;;;;17.52;10.80;;;12.80;99.90;;;;;;5093018;28;20454;-68
2022/05/14 05:06:51;;;;;;;22.30;11.85;;;12.50;99.90;;;;;;5075126;28;20059;-68
2022/05/14 05:09:16;;;;;;;24.05;12.77;;;12.40;99.90;;;;;;5093092;28;20497;-68
2022/05/14 05:11:42;;;;;;;19.50;12.80;;;12.10;99.90;;;;;;5093195;28;20060;-67
2022/05/14 05:14:07;;;;;;;20.67;14.13;;;12.00;99.90;;;;;;5093183;28;20607;-67
2022/05/14 05:16:33;;;;;;;27.08;13.57;;;11.90;99.90;;;;;;5091937;28;20028;-67
2022/05/14 05:18:58;;;;;;;27.77;13.80;;;12.00;99.90;;;;;;5093158;28;20059;-67
2022/05/14 05:21:24;;;;;;;25.83;14.00;;;12.00;99.90;;;;;;5091892;28;20047;-67
2022/05/14 05:23:49;;;;;;;24.67;13.13;;;12.00;99.90;;;;;;5091744;28;20470;-67
2022/05/14 05:26:15;;;;;;;28.83;13.70;;;12.10;99.90;;;;;;5091754;28;20027;-67
2022/05/14 05:28:40;;;;;;;26.40;13.05;;;12.10;99.90;;;;;;5092116;28;20355;-67
2022/05/14 05:31:07;;;;;;;17.50;11.95;;;12.50;99.90;;;;;;5096905;28;20020;-67
2022/05/14 05:33:32;;;;;;;24.95;12.60;;;12.70;99.90;;;;;;5095730;28;20020;-67
2022/05/14 05:35:58;;;;;;;24.63;12.75;;;13.10;99.90;;;;;;5078626;28;20023;-67
2022/05/14 05:38:23;;;;;;;21.40;12.27;;;13.20;99.90;;;;;;5095450;28;20371;-67
2022/05/14 05:40:51;;;;;;;17.95;11.57;;;13.50;99.90;;;;;;5096730;28;20051;-67
2022/05/14 05:43:16;;;;;;;21.85;10.85;;;14.10;99.90;;;;;;5095322;28;20028;-67
2022/05/14 05:45:45;;;;;;;23.45;11.32;;;13.90;99.90;;;;;;5096609;28;20503;-67
2022/05/14 05:48:11;;;;;;;23.77;11.13;;;13.80;99.90;;;;;;5096504;28;20043;-67
2022/05/14 05:50:38;;;;;;;20.30;10.30;;;14.50;99.90;;;;;;5096507;28;20439;-74
2022/05/14 05:53:04;;;;;;;23.52;10.38;;;14.90;99.90;;;;;;5096678;28;20020;-67
2022/05/14 05:58:19;;;;;;;18.35;8.88;;;15.90;99.90;;;;;;5096215;28;20390;-67
2022/05/14 06:00:45;;;;;;;18.73;9.05;;;16.30;99.90;;;;;;5096309;28;20103;-67
2022/05/14 06:03:11;;;;;;;16.88;8.45;;;17.10;99.90;;;;;;5096202;28;20089;-67
2022/05/14 06:05:38;;;;;;;17.10;9.00;;;17.10;99.90;;;;;;5096281;28;20022;-67
2022/05/14 06:08:08;;;;;;;16.85;8.52;;;16.60;99.90;;;;;;5095115;28;20116;-67
2022/05/14 06:10:33;;;;;;;19.52;8.60;;;16.40;99.90;;;;;;5094812;28;20470;-67
2022/05/14 06:12:59;;;;;;;17.48;8.52;;;17.00;99.90;;;;;;5094955;28;20034;-67
2022/05/14 06:15:25;;;;;;;18.42;9.05;;;16.60;99.90;;;;;;5094864;28;20091;-67
2022/05/14 06:17:50;;;;;;;15.38;7.75;;;16.40;99.90;;;;;;5095000;28;20047;-67
2022/05/14 06:20:17;;;;;;;15.85;8.27;;;17.00;99.90;;;;;;5094613;28;20028;-67
2022/05/14 06:22:43;;;;;;;17.63;7.93;;;17.10;99.90;;;;;;5077665;28;20486;-67
2022/05/14 06:25:09;;;;;;;17.13;8.00;;;17.80;99.90;;;;;;5095919;28;20051;-68
2022/05/14 06:27:35;;;;;;;16.55;7.63;;;18.10;99.90;;;;;;5094619;28;20050;-67
2022/05/14 06:30:00;;;;;;;19.00;7.38;;;18.10;99.90;;;;;;5094485;28;20020;-68
2022/05/14 06:32:26;;;;;;;15.13;7.05;;;18.20;99.90;;;;;;5095720;28;20422;-67
2022/05/14 06:34:51;;;;;;;17.17;7.18;;;17.80;99.90;;;;;;5094505;28;20039;-67
2022/05/14 06:37:17;;;;;;;13.10;6.43;;;17.60;99.90;;;;;;5095631;28;20020;-67
2022/05/14 06:39:43;;;;;;;15.50;7.47;;;17.60;99.90;;;;;;5095378;28;20099;-67
2022/05/14 06:42:11;;;;;;;18.05;7.70;;;17.80;99.90;;;;;;5094369;28;20567;-67
2022/05/14 06:44:36;;;;;;;13.85;7.30;;;17.40;99.90;;;;;;5094428;28;20027;-68
2022/05/14 06:47:02;;;;;;;15.40;6.90;;;17.50;99.90;;;;;;5095486;28;20447;-67
2022/05/14 06:49:28;;;;;;;18.60;7.88;;;17.40;99.90;;;;;;5095392;28;20028;-67
2022/05/14 06:51:56;;;;;;;14.82;7.28;;;16.90;99.90;;;;;;5094148;28;20019;-67
2022/05/14 06:54:22;;;;;;;17.77;7.00;;;17.40;99.90;;;;;;5094115;28;20016;-67
2022/05/14 06:56:48;;;;;;;18.58;7.85;;;18.00;99.90;;;;;;5095291;28;20476;-67
2022/05/14 06:59:14;;;;;;;14.85;7.00;;;17.30;99.90;;;;;;5095198;28;20028;-67
2022/05/14 07:01:43;;;;;;;17.17;6.75;;;17.70;99.90;;;;;;5095219;28;20020;-67
2022/05/14 07:06:57;;;;;;;16.33;6.90;;;18.00;99.90;;;;;;5093806;28;20039;-67
2022/05/14 07:09:27;;;;;;;19.08;6.88;;;18.10;99.90;;;;;;5093846;28;20020;-67
2022/05/14 07:11:58;;;;;;;16.98;7.43;;;18.40;99.90;;;;;;5093718;28;20028;-67
2022/05/14 07:14:25;;;;;;;16.92;7.47;;;18.30;99.90;;;;;;5093738;28;20058;-67
2022/05/14 07:16:52;;;;;;;19.60;7.88;;;18.70;99.90;;;;;;5095108;28;20023;-67
2022/05/14 07:19:17;;;;;;;17.25;7.60;;;17.90;99.90;;;;;;5094792;28;20432;-67
2022/05/14 07:21:45;;;;;;;16.88;7.68;;;18.50;99.90;;;;;;5094735;28;20057;-67
2022/05/14 07:24:16;;;;;;;14.13;7.43;;;18.10;99.90;;;;;;5094699;28;20051;-67
2022/05/14 07:26:43;;;;;;;19.80;8.02;;;18.20;99.90;;;;;;5094569;28;20409;-67
2022/05/14 07:29:12;;;;;;;14.07;6.82;;;19.40;99.90;;;;;;5094670;28;20379;-67
2022/05/14 07:31:38;;;;;;;21.00;7.47;;;20.10;99.90;;;;;;5093240;28;20028;-67
2022/05/14 07:34:04;;;;;;;20.00;8.13;;;20.10;99.90;;;;;;5094633;28;20020;-67
2022/05/14 07:36:33;;;;;;;15.98;7.82;;;19.90;99.90;;;;;;5094452;28;20024;-67
2022/05/14 07:39:04;;;;;;;18.60;7.13;;;20.80;99.90;;;;;;5093352;28;20176;-67
2022/05/14 07:41:32;;;;;;;19.60;7.03;;;20.00;99.90;;;;;;5093049;28;20504;-67
2022/05/14 07:43:58;;;;;;;19.40;7.32;;;21.50;99.90;;;;;;5093270;28;20402;-67
2022/05/14 07:46:30;;;;;;;22.63;8.32;;;20.60;99.90;;;;;;5094016;28;20401;-67
2022/05/14 07:48:58;;;;;;;21.13;8.13;;;20.10;99.90;;;;;;5094187;28;20055;-67
2022/05/14 07:51:25;;;;;;;22.10;8.88;;;20.10;99.90;;;;;;5092302;28;20133;-69
2022/05/14 07:53:51;;;;;;;22.50;8.90;;;19.80;99.90;;;;;;5094351;28;20020;-67
2022/05/14 07:56:17;;;;;;;17.90;7.72;;;19.70;99.90;;;;;;5094095;28;20016;-67
2022/05/14 07:58:43;;;;;;;17.45;7.45;;;20.70;99.90;;;;;;5094074;28;20026;-67
2022/05/14 08:01:09;;;;;;;20.35;8.48;;;21.40;99.90;;;;;;5094036;28;20103;-66
2022/05/14 08:03:35;;;;;;;15.73;7.47;;;21.40;99.90;;;;;;5094070;28;20525;-66
2022/05/14 08:06:01;;;;;;;20.35;8.57;;;21.80;99.90;;;;;;5093862;28;20024;-66
2022/05/14 08:08:27;;;;;;;19.63;8.80;;;21.10;99.90;;;;;;5092470;28;20074;-68
2022/05/14 08:10:54;;;;;;;20.35;8.48;;;20.80;99.90;;;;;;5094038;28;20028;-68
2022/05/14 08:13:21;;;;;;;21.02;8.23;;;20.60;99.90;;;;;;5092560;28;20028;-68
2022/05/14 08:15:48;;;;;;;15.80;8.40;;;21.20;99.90;;;;;;5093746;28;20024;-69
2022/05/14 08:18:15;;;;;;;21.70;8.50;;;21.60;99.90;;;;;;5093664;28;20031;-68
2022/05/14 08:20:42;;;;;;;21.23;8.63;;;21.70;99.90;;;;;;5092296;28;20497;-68
2022/05/14 08:25:56;;;;;;;18.23;7.72;;;22.20;99.90;;;;;;5093442;28;20032;-68
2022/05/14 08:28:22;;;;;;;20.98;8.35;;;22.10;98.40;;;;;;5093458;28;20110;-68
2022/05/14 08:30:47;;;;;;;18.20;8.50;;;21.90;99.90;;;;;;5093488;28;20129;-69
2022/05/14 08:33:13;;;;;;;18.80;8.65;;;21.50;99.90;;;;;;5093722;28;20023;-68
2022/05/14 08:35:40;;;;;;;20.77;7.82;;;22.00;99.90;;;;;;5093495;28;20024;-68
2022/05/14 08:38:08;;;;;;;17.85;8.35;;;21.90;99.70;;;;;;5093725;28;20385;-69
2022/05/14 08:40:56;;;;;;;23.83;9.77;;;22.40;98.10;;;;;;5093403;28;20081;-69
2022/05/14 08:43:32;;;;;;;14.70;7.50;;;21.80;99.90;;;;;;5093238;28;20024;-69
2022/05/14 08:45:59;;;;;;;18.17;8.02;;;21.60;99.90;;;;;;5093029;28;20032;-69
2022/05/14 08:48:28;;;;;;;20.58;8.82;;;22.60;98.50;;;;;;5093445;28;20028;-68
2022/05/14 08:51:00;;;;;;;15.55;7.95;;;22.30;98.90;;;;;;5092292;28;20386;-69
2022/05/14 08:53:27;;;;;;;16.85;7.63;;;22.70;98.30;;;;;;5093516;28;20030;-69
2022/05/14 08:56:25;;;;;;;19.58;8.60;;;23.50;96.30;;;;;;5092244;28;20059;-69
2022/05/14 08:59:29;;;;;;;21.27;8.43;;;23.80;94.90;;;;;;5093397;28;20500;-69
2022/05/14 09:02:01;;;;;;;19.67;8.27;;;23.20;94.30;;;;;;5093157;28;20077;-69
2022/05/14 09:04:27;;;;;;;21.10;8.45;;;22.30;95.40;;;;;;5096961;28;20436;-69
2022/05/14 09:06:53;;;;;;;21.05;8.65;;;22.50;96.60;;;;;;5097238;28;20042;-69
2022/05/14 09:09:19;;;;;;;26.13;8.77;;;22.90;96.70;;;;;;5097306;28;20085;-69
2022/05/14 09:11:54;;;;;;;20.58;8.23;;;22.50;96.70;;;;;;5097433;28;20390;-68
2022/05/14 09:14:34;;;;;;;15.40;8.15;;;23.10;96.40;;;;;;5097381;28;20031;-68
2022/05/14 09:17:06;;;;;;;18.35;8.15;;;23.10;95.00;;;;;;5097118;28;20085;-69
2022/05/14 09:19:38;;;;;;;22.25;7.75;;;23.00;94.40;;;;;;5097346;28;20032;-69
2022/05/14 09:25:15;;;;;;;17.75;8.57;;;22.70;95.50;;;;;;5111216;27;20400;-69
2022/05/14 09:27:47;;;;;;;19.83;8.15;;;22.90;94.10;;;;;;5111082;28;20420;-69
2022/05/14 09:30:41;;;;;;;22.70;8.60;;;22.30;96.30;;;;;;5110990;28;20016;-69
2022/05/14 09:33:20;;;;;;;17.63;8.30;;;22.30;96.50;;;;;;5109814;28;20059;-69
2022/05/14 09:35:55;;;;;;;22.27;7.65;;;22.70;95.10;;;;;;5110925;28;20035;-69
2022/05/14 09:38:23;;;;;;;17.92;7.07;;;23.20;94.30;;;;;;5111088;28;20055;-69
2022/05/14 09:40:50;;;;;;;20.00;8.00;;;23.00;94.70;;;;;;5111012;28;20058;-69
2022/05/14 09:46:11;;;;;;;15.38;7.65;;;22.60;93.90;;;;;;5111043;27;20177;-68
2022/05/14 09:48:47;;;;;;;19.05;8.00;;;23.90;94.00;;;;;;5111253;28;20028;-69
2022/05/14 09:51:25;;;;;;;21.23;8.45;;;24.20;91.80;;;;;;5109674;28;20030;-68
2022/05/14 09:53:50;;;;;;;17.88;7.40;;;23.20;91.80;;;;;;5110913;28;20032;-68
2022/05/14 09:56:44;;;;;;;20.17;7.88;;;23.60;92.40;;;;;;5111083;28;20433;-69
2022/05/14 09:59:38;;;;;;;18.08;7.15;;;23.80;92.70;;;;;;5110665;28;20059;-69
2022/05/14 10:02:18;;;;;;;22.08;7.28;;;24.20;92.00;;;;;;5111034;28;20558;-69
2022/05/14 10:05:17;;;;;;;18.67;6.88;;;24.30;90.10;;;;;;5110885;28;20562;-69
2022/05/14 10:08:22;;;;;;;16.80;7.78;;;23.70;91.00;;;;;;5110548;28;20420;-68
2022/05/14 10:11:02;;;;;;;15.27;7.25;;;22.50;93.50;;;;;;5109181;28;20048;-68
2022/05/14 10:13:54;;;;;;;25.42;9.07;;;22.60;94.30;;;;;;5110823;28;20031;-69
2022/05/14 10:16:28;;;;;;;20.45;7.82;;;23.00;92.60;;;;;;5110469;28;20027;-69
2022/05/14 10:19:11;;;;;;;18.15;8.20;;;22.80;95.10;;;;;;5110456;28;20024;-69
2022/05/14 10:22:16;;;;;;;17.27;7.38;;;22.90;93.40;;;;;;5110580;28;20478;-69
2022/05/14 10:28:19;;;;;;;17.13;5.70;;;23.00;92.50;;;;;;5110136;28;20016;-68
2022/05/14 10:33:27;;;;;;;15.63;5.72;;;22.60;91.80;;;;;;5090627;28;20307;-69
2022/05/14 10:35:59;;;;;;;17.85;6.25;;;22.00;96.50;;;;;;5090732;28;20413;-69
2022/05/14 10:38:31;;;;;;;16.52;6.72;;;22.60;93.80;;;;;;5090677;28;20023;-69
2022/05/14 10:41:03;;;;;;;21.20;5.68;;;23.30;92.80;;;;;;5090594;28;20538;-68
2022/05/14 10:43:48;;;;;;;15.57;5.82;;;23.70;91.50;;;;;;5089302;28;20062;-68
2022/05/14 10:46:18;;;;;;;18.92;6.30;;;22.50;92.90;;;;;;5090551;28;20025;-68
2022/05/14 10:48:57;;;;;;;17.65;6.25;;;22.40;92.60;;;;;;5090527;28;20016;-69
2022/05/14 10:51:27;;;;;;;12.98;5.25;;;21.70;93.40;;;;;;5089429;28;20024;-68
2022/05/14 10:53:53;;;;;;;17.15;5.57;;;22.10;95.20;;;;;;5090321;28;20509;-68
2022/05/14 10:56:36;;;;;;;17.63;4.68;;;22.20;92.60;;;;;;5090552;28;20031;-69
2022/05/14 10:59:07;;;;;;;16.20;5.68;;;22.10;93.00;;;;;;5090466;28;20052;-68
2022/05/14 11:01:40;;;;;;;18.48;5.95;;;22.30;94.10;;;;;;5090214;28;20029;-69
2022/05/14 11:04:27;;;;;;;12.10;4.68;;;23.00;92.20;;;;;;5090427;28;20093;-68
2022/05/14 11:07:01;;;;;;;16.15;5.75;;;23.00;91.40;;;;;;5090101;28;20032;-68
2022/05/14 11:12:31;;;;;;;11.48;4.93;;;22.80;93.40;;;;;;5111139;27;20347;-69
2022/05/14 11:14:59;;;;;;;15.82;6.18;;;23.20;91.50;;;;;;5111232;28;20036;-69
2022/05/14 11:17:29;;;;;;;17.63;5.57;;;23.10;90.30;;;;;;5111295;28;20050;-69
2022/05/14 11:20:13;;;;;;;13.38;4.80;;;22.80;91.40;;;;;;5110064;28;20367;-69
2022/05/14 11:22:43;;;;;;;20.58;5.95;;;23.20;90.70;;;;;;5110008;28;20107;-69
2022/05/14 11:25:26;;;;;;;14.70;5.25;;;23.40;89.30;;;;;;5110878;28;20023;-68
2022/05/14 11:27:59;;;;;;;16.20;5.55;;;22.90;90.60;;;;;;5111109;28;20020;-69
2022/05/14 11:30:35;;;;;;;;;;;22.90;92.50;;;;;;5109787;28;20024;-69
2022/05/14 11:33:04;;;;;;;14.95;5.75;;;23.30;90.80;;;;;;5110704;28;20414;-69
2022/05/14 11:35:40;;;;;;;16.52;6.20;;;23.00;90.70;;;;;;5110963;28;20084;-67
2022/05/14 11:38:29;;;;;;;15.85;6.25;;;22.50;90.50;;;;;;5110899;28;20103;-67
2022/05/14 11:40:58;;;;;;;12.85;6.45;;;22.20;92.00;;;;;;5110822;28;20035;-67
2022/05/14 11:43:29;;;;;;;13.45;6.38;;;21.80;92.20;;;;;;5110500;28;20035;-67
2022/05/14 11:46:23;;;;;;;17.52;6.90;;;22.50;92.50;;;;;;5110449;28;20027;-68
2022/05/14 11:48:58;;;;;;;14.90;5.85;;;22.90;92.00;;;;;;5110320;28;20426;-68
2022/05/14 11:51:52;;;;;;;15.65;6.05;;;23.10;87.10;;;;;;5110237;28;20028;-68
2022/05/14 11:54:28;;;;;;;17.50;5.90;;;22.90;89.10;;;;;;5110134;28;20032;-68
2022/05/14 11:57:13;;;;;;;14.77;6.30;;;23.10;89.90;;;;;;5109029;28;20027;-69
2022/05/14 12:03:08;;;;;;;15.25;5.78;;;22.50;90.60;;;;;;5070381;28;20354;-68
2022/05/14 12:05:43;;;;;;;15.00;5.38;;;22.40;91.80;;;;;;5069079;28;20040;-68
2022/05/14 12:08:37;;;;;;;12.98;5.20;;;22.30;91.70;;;;;;5070506;28;20021;-68
2022/05/14 12:11:21;;;;;;;14.68;5.57;;;22.50;91.80;;;;;;5070661;28;20147;-67
2022/05/14 12:14:14;;;;;;;14.45;5.68;;;22.80;91.50;;;;;;5070217;28;20028;-67
2022/05/14 12:16:49;;;;;;;12.77;5.45;;;23.30;90.20;;;;;;5070194;28;20096;-68
2022/05/14 12:19:24;;;;;;;16.52;5.90;;;22.70;89.50;;;;;;5070468;28;20483;-68
2022/05/14 12:21:56;;;;;;;14.65;5.28;;;22.60;88.50;;;;;;5070227;28;20035;-68
2022/05/14 12:24:25;;;;;;;15.88;5.35;;;22.50;90.40;;;;;;5070348;28;20055;-69
2022/05/14 12:26:54;;;;;;;16.65;4.97;;;22.20;90.00;;;;;;5070137;28;20108;-67
2022/05/14 12:29:26;;;;;;;12.52;5.35;;;22.40;91.30;;;;;;5070306;28;20386;-67
2022/05/14 12:34:59;;;;;;;11.77;4.47;;;23.40;87.50;;;;;;5069777;28;20028;-69
2022/05/14 12:37:37;;;;;;;19.83;5.38;;;23.50;86.90;;;;;;5070103;28;20028;-68
2022/05/14 12:40:04;;;;;;;13.45;4.50;;;23.80;85.90;;;;;;5069801;28;20025;-69
2022/05/14 12:42:40;;;;;;;11.68;4.38;;;23.80;85.80;;;;;;5068473;28;20036;-68
2022/05/14 12:45:08;;;;;;;14.95;4.85;;;23.80;84.50;;;;;;5051987;28;20040;-68
2022/05/14 12:47:37;;;;;;;13.85;5.20;;;23.40;84.90;;;;;;5069581;28;20026;-69
2022/05/14 12:50:14;;;;;;;14.82;4.35;;;23.10;85.40;;;;;;5069768;28;20056;-70
2022/05/14 12:52:40;;;;;;;12.43;4.38;;;22.90;87.90;;;;;;5069573;28;20040;-69
2022/05/14 12:55:10;;;;;;;16.08;5.03;;;23.50;87.70;;;;;;5069554;28;20399;-69
2022/05/14 12:57:43;;;;;;;12.90;5.03;;;23.50;84.50;;;;;;5069560;28;20028;-69
2022/05/14 13:00:11;;;;;;;12.48;4.60;;;23.50;84.40;;;;;;5069671;28;20027;-69
2022/05/14 13:02:52;;;;;;;11.75;4.45;;;23.10;82.80;;;;;;5069047;28;20053;-68
2022/05/14 13:05:39;;;;;;;13.05;4.88;;;23.40;84.10;;;;;;5069560;28;20376;-69
2022/05/14 13:08:10;;;;;;;11.23;3.97;;;23.30;82.30;;;;;;5069157;28;20028;-69
2022/05/14 13:10:37;;;;;;;12.98;3.90;;;23.30;81.20;;;;;;5069374;28;20123;-69
2022/05/14 13:13:07;;;;;;;16.35;4.32;;;23.50;77.40;;;;;;5061593;28;20103;-69
2022/05/14 13:15:41;;;;;;;13.25;4.72;;;23.70;78.70;;;;;;5056146;28;20104;-69
2022/05/14 13:18:19;;;;;;;16.50;4.43;;;23.80;79.40;;;;;;5054999;28;20459;-67
2022/05/14 13:20:45;;;;;;;12.38;4.22;;;24.30;79.80;;;;;;5055985;28;20055;-69